sensor_id;sensor_type;location;lat;lon;timestamp;temperature;humidity
79055;DHT22;68452;47.186;-1.528;2023-07-13T00:01:20;20.60;56.00
79055;DHT22;68452;47.186;-1.528;2023-07-13T00:03:48;20.60;56.10
79055;DHT22;68452;47.186;-1.528;2023-07-13T00:06:14;20.60;56.20
79055;DHT22;68452;47.186;-1.528;2023-07-13T00:08:39;20.50;56.20
79055;DHT22;68452;47.186;-1.528;2023-07-13T00:11:05;20.50;56.40
79055;DHT22;68452;47.186;-1.528;2023-07-13T00:13:32;20.50;56.50
79055;DHT22;68452;47.186;-1.528;2023-07-13T00:15:59;20.50;56.40
79055;DHT22;68452;47.186;-1.528;2023-07-13T00:18:26;20.40;56.60
79055;DHT22;68452;47.186;-1.528;2023-07-13T00:20:56;20.40;56.80
79055;DHT22;68452;47.186;-1.528;2023-07-13T00:23:31;20.30;57.00
79055;DHT22;68452;47.186;-1.528;2023-07-13T00:26:00;20.30;57.00
79055;DHT22;68452;47.186;-1.528;2023-07-13T00:28:26;20.30;57.20
79055;DHT22;68452;47.186;-1.528;2023-07-13T00:30:52;20.30;57.20
79055;DHT22;68452;47.186;-1.528;2023-07-13T00:33:18;20.30;57.30
79055;DHT22;68452;47.186;-1.528;2023-07-13T00:35:44;20.20;57.30
79055;DHT22;68452;47.186;-1.528;2023-07-13T00:38:10;20.20;57.30
79055;DHT22;68452;47.186;-1.528;2023-07-13T00:40:36;20.10;57.50
79055;DHT22;68452;47.186;-1.528;2023-07-13T00:43:04;20.20;57.40
79055;DHT22;68452;47.186;-1.528;2023-07-13T00:47:56;20.10;57.60
79055;DHT22;68452;47.186;-1.528;2023-07-13T00:50:23;20.10;57.60
79055;DHT22;68452;47.186;-1.528;2023-07-13T00:52:51;20.00;57.60
79055;DHT22;68452;47.186;-1.528;2023-07-13T00:55:19;20.00;57.60
79055;DHT22;68452;47.186;-1.528;2023-07-13T00:57:46;20.10;57.40
79055;DHT22;68452;47.186;-1.528;2023-07-13T01:00:13;20.00;57.20
79055;DHT22;68452;47.186;-1.528;2023-07-13T01:02:41;20.00;57.50
79055;DHT22;68452;47.186;-1.528;2023-07-13T01:05:17;19.90;57.50
79055;DHT22;68452;47.186;-1.528;2023-07-13T01:07:44;19.90;57.70
79055;DHT22;68452;47.186;-1.528;2023-07-13T01:10:12;19.90;57.70
79055;DHT22;68452;47.186;-1.528;2023-07-13T01:12:38;19.90;57.80
79055;DHT22;68452;47.186;-1.528;2023-07-13T01:15:04;19.80;57.80
79055;DHT22;68452;47.186;-1.528;2023-07-13T01:17:33;19.80;58.00
79055;DHT22;68452;47.186;-1.528;2023-07-13T01:19:59;19.70;58.10
79055;DHT22;68452;47.186;-1.528;2023-07-13T01:22:25;19.70;58.20
79055;DHT22;68452;47.186;-1.528;2023-07-13T01:24:53;19.70;58.20
79055;DHT22;68452;47.186;-1.528;2023-07-13T01:27:25;19.80;58.10
79055;DHT22;68452;47.186;-1.528;2023-07-13T01:29:52;19.80;58.10
79055;DHT22;68452;47.186;-1.528;2023-07-13T01:32:21;19.70;58.00
79055;DHT22;68452;47.186;-1.528;2023-07-13T01:34:51;19.70;57.90
79055;DHT22;68452;47.186;-1.528;2023-07-13T01:37:20;19.60;58.10
79055;DHT22;68452;47.186;-1.528;2023-07-13T01:39:47;19.60;58.10
79055;DHT22;68452;47.186;-1.528;2023-07-13T01:42:14;19.60;58.30
79055;DHT22;68452;47.186;-1.528;2023-07-13T01:44:40;19.60;58.50
79055;DHT22;68452;47.186;-1.528;2023-07-13T01:47:06;19.60;58.20
79055;DHT22;68452;47.186;-1.528;2023-07-13T01:49:32;19.60;58.30
79055;DHT22;68452;47.186;-1.528;2023-07-13T01:51:58;19.50;58.30
79055;DHT22;68452;47.186;-1.528;2023-07-13T01:54:24;19.50;58.30
79055;DHT22;68452;47.186;-1.528;2023-07-13T01:56:49;19.50;58.20
79055;DHT22;68452;47.186;-1.528;2023-07-13T01:59:15;19.50;58.30
79055;DHT22;68452;47.186;-1.528;2023-07-13T02:01:41;19.50;58.30
79055;DHT22;68452;47.186;-1.528;2023-07-13T02:04:07;19.50;58.30
79055;DHT22;68452;47.186;-1.528;2023-07-13T02:06:33;19.40;58.30
79055;DHT22;68452;47.186;-1.528;2023-07-13T02:08:59;19.40;58.30
79055;DHT22;68452;47.186;-1.528;2023-07-13T02:11:25;19.40;58.40
79055;DHT22;68452;47.186;-1.528;2023-07-13T02:14:01;19.40;58.30
79055;DHT22;68452;47.186;-1.528;2023-07-13T02:16:28;19.40;58.20
79055;DHT22;68452;47.186;-1.528;2023-07-13T02:18:54;19.30;58.10
79055;DHT22;68452;47.186;-1.528;2023-07-13T02:21:20;19.30;58.20
79055;DHT22;68452;47.186;-1.528;2023-07-13T02:23:46;19.30;58.30
79055;DHT22;68452;47.186;-1.528;2023-07-13T02:26:13;19.20;58.40
79055;DHT22;68452;47.186;-1.528;2023-07-13T02:28:39;19.20;58.60
79055;DHT22;68452;47.186;-1.528;2023-07-13T02:31:11;19.20;58.70
79055;DHT22;68452;47.186;-1.528;2023-07-13T02:33:37;19.20;58.60
79055;DHT22;68452;47.186;-1.528;2023-07-13T02:36:03;19.20;58.60
79055;DHT22;68452;47.186;-1.528;2023-07-13T02:38:31;19.10;58.70
79055;DHT22;68452;47.186;-1.528;2023-07-13T02:41:00;19.10;58.80
79055;DHT22;68452;47.186;-1.528;2023-07-13T02:43:27;19.10;58.90
79055;DHT22;68452;47.186;-1.528;2023-07-13T02:45:53;19.10;58.90
79055;DHT22;68452;47.186;-1.528;2023-07-13T02:48:18;19.00;58.80
79055;DHT22;68452;47.186;-1.528;2023-07-13T02:50:44;19.00;59.00
79055;DHT22;68452;47.186;-1.528;2023-07-13T02:53:11;18.90;59.00
79055;DHT22;68452;47.186;-1.528;2023-07-13T02:55:37;18.90;59.10
79055;DHT22;68452;47.186;-1.528;2023-07-13T02:58:02;18.90;58.90
79055;DHT22;68452;47.186;-1.528;2023-07-13T03:00:28;18.80;59.00
79055;DHT22;68452;47.186;-1.528;2023-07-13T03:02:54;18.90;59.00
79055;DHT22;68452;47.186;-1.528;2023-07-13T03:05:23;18.90;59.00
79055;DHT22;68452;47.186;-1.528;2023-07-13T03:07:49;18.90;58.80
79055;DHT22;68452;47.186;-1.528;2023-07-13T03:10:15;18.90;58.90
79055;DHT22;68452;47.186;-1.528;2023-07-13T03:12:42;18.90;58.90
79055;DHT22;68452;47.186;-1.528;2023-07-13T03:15:08;18.90;59.00
79055;DHT22;68452;47.186;-1.528;2023-07-13T03:17:34;18.80;58.90
79055;DHT22;68452;47.186;-1.528;2023-07-13T03:19:59;18.80;59.10
79055;DHT22;68452;47.186;-1.528;2023-07-13T03:22:25;18.80;59.10
79055;DHT22;68452;47.186;-1.528;2023-07-13T03:24:51;18.80;58.90
79055;DHT22;68452;47.186;-1.528;2023-07-13T03:27:17;18.80;58.90
79055;DHT22;68452;47.186;-1.528;2023-07-13T03:29:44;18.80;58.90
79055;DHT22;68452;47.186;-1.528;2023-07-13T03:32:09;18.70;59.00
79055;DHT22;68452;47.186;-1.528;2023-07-13T03:34:35;18.70;59.10
79055;DHT22;68452;47.186;-1.528;2023-07-13T03:37:01;18.70;59.10
79055;DHT22;68452;47.186;-1.528;2023-07-13T03:39:27;18.70;59.20
79055;DHT22;68452;47.186;-1.528;2023-07-13T03:41:54;18.70;59.20
79055;DHT22;68452;47.186;-1.528;2023-07-13T03:44:20;18.70;59.20
79055;DHT22;68452;47.186;-1.528;2023-07-13T03:46:46;18.60;59.20
79055;DHT22;68452;47.186;-1.528;2023-07-13T03:49:12;18.60;59.20
79055;DHT22;68452;47.186;-1.528;2023-07-13T03:51:39;18.60;59.50
79055;DHT22;68452;47.186;-1.528;2023-07-13T03:54:07;18.60;59.50
79055;DHT22;68452;47.186;-1.528;2023-07-13T03:56:34;18.60;59.50
79055;DHT22;68452;47.186;-1.528;2023-07-13T03:59:00;18.60;59.50
79055;DHT22;68452;47.186;-1.528;2023-07-13T04:01:29;18.60;59.50
79055;DHT22;68452;47.186;-1.528;2023-07-13T04:03:55;18.60;59.70
79055;DHT22;68452;47.186;-1.528;2023-07-13T04:06:28;18.50;59.60
79055;DHT22;68452;47.186;-1.528;2023-07-13T04:08:59;18.50;59.70
79055;DHT22;68452;47.186;-1.528;2023-07-13T04:11:31;18.60;59.80
79055;DHT22;68452;47.186;-1.528;2023-07-13T04:13:58;18.60;59.70
79055;DHT22;68452;47.186;-1.528;2023-07-13T04:16:24;18.60;59.70
79055;DHT22;68452;47.186;-1.528;2023-07-13T04:18:51;18.60;59.60
79055;DHT22;68452;47.186;-1.528;2023-07-13T04:21:20;18.60;59.60
79055;DHT22;68452;47.186;-1.528;2023-07-13T04:23:47;18.60;59.70
79055;DHT22;68452;47.186;-1.528;2023-07-13T04:26:13;18.70;59.70
79055;DHT22;68452;47.186;-1.528;2023-07-13T04:28:38;18.70;59.70
79055;DHT22;68452;47.186;-1.528;2023-07-13T04:31:04;18.70;59.70
79055;DHT22;68452;47.186;-1.528;2023-07-13T04:33:30;18.60;59.90
79055;DHT22;68452;47.186;-1.528;2023-07-13T04:35:56;18.60;60.20
79055;DHT22;68452;47.186;-1.528;2023-07-13T04:38:27;18.50;60.20
79055;DHT22;68452;47.186;-1.528;2023-07-13T04:40:58;18.50;60.40
79055;DHT22;68452;47.186;-1.528;2023-07-13T04:43:25;18.60;60.70
79055;DHT22;68452;47.186;-1.528;2023-07-13T04:45:52;18.60;60.30
79055;DHT22;68452;47.186;-1.528;2023-07-13T04:48:19;18.60;60.70
79055;DHT22;68452;47.186;-1.528;2023-07-13T04:50:46;18.60;60.40
79055;DHT22;68452;47.186;-1.528;2023-07-13T04:53:12;18.60;60.80
79055;DHT22;68452;47.186;-1.528;2023-07-13T04:55:38;18.60;60.80
79055;DHT22;68452;47.186;-1.528;2023-07-13T04:58:04;18.50;61.20
79055;DHT22;68452;47.186;-1.528;2023-07-13T05:00:30;18.60;61.30
79055;DHT22;68452;47.186;-1.528;2023-07-13T05:02:57;18.70;61.10
79055;DHT22;68452;47.186;-1.528;2023-07-13T05:05:25;18.70;60.90
79055;DHT22;68452;47.186;-1.528;2023-07-13T05:07:52;18.70;60.80
79055;DHT22;68452;47.186;-1.528;2023-07-13T05:10:18;18.70;60.80
79055;DHT22;68452;47.186;-1.528;2023-07-13T05:12:44;18.70;61.00
79055;DHT22;68452;47.186;-1.528;2023-07-13T05:15:10;18.70;61.10
79055;DHT22;68452;47.186;-1.528;2023-07-13T05:17:36;18.80;61.10
79055;DHT22;68452;47.186;-1.528;2023-07-13T05:20:05;18.80;61.00
79055;DHT22;68452;47.186;-1.528;2023-07-13T05:22:31;18.80;61.20
79055;DHT22;68452;47.186;-1.528;2023-07-13T05:24:57;18.80;61.10
79055;DHT22;68452;47.186;-1.528;2023-07-13T05:27:23;18.80;61.00
79055;DHT22;68452;47.186;-1.528;2023-07-13T05:29:49;18.70;61.50
79055;DHT22;68452;47.186;-1.528;2023-07-13T05:32:15;18.80;61.80
79055;DHT22;68452;47.186;-1.528;2023-07-13T05:34:41;18.80;61.90
79055;DHT22;68452;47.186;-1.528;2023-07-13T05:37:08;18.80;61.80
79055;DHT22;68452;47.186;-1.528;2023-07-13T05:39:34;18.90;61.80
79055;DHT22;68452;47.186;-1.528;2023-07-13T05:42:02;19.00;61.80
79055;DHT22;68452;47.186;-1.528;2023-07-13T05:44:28;18.90;61.70
79055;DHT22;68452;47.186;-1.528;2023-07-13T05:46:54;18.90;62.20
79055;DHT22;68452;47.186;-1.528;2023-07-13T05:49:22;19.00;62.40
79055;DHT22;68452;47.186;-1.528;2023-07-13T05:51:48;19.00;62.30
79055;DHT22;68452;47.186;-1.528;2023-07-13T05:54:14;19.10;62.40
79055;DHT22;68452;47.186;-1.528;2023-07-13T05:56:40;19.20;62.40
79055;DHT22;68452;47.186;-1.528;2023-07-13T05:59:06;19.20;62.40
79055;DHT22;68452;47.186;-1.528;2023-07-13T06:01:32;19.30;62.30
79055;DHT22;68452;47.186;-1.528;2023-07-13T06:03:58;19.40;62.40
79055;DHT22;68452;47.186;-1.528;2023-07-13T06:06:24;19.40;62.20
79055;DHT22;68452;47.186;-1.528;2023-07-13T06:08:50;19.40;62.00
79055;DHT22;68452;47.186;-1.528;2023-07-13T06:11:21;19.40;62.10
79055;DHT22;68452;47.186;-1.528;2023-07-13T06:13:47;19.40;62.30
79055;DHT22;68452;47.186;-1.528;2023-07-13T06:16:14;19.50;62.30
79055;DHT22;68452;47.186;-1.528;2023-07-13T06:18:40;19.60;62.20
79055;DHT22;68452;47.186;-1.528;2023-07-13T06:21:12;19.60;62.30
79055;DHT22;68452;47.186;-1.528;2023-07-13T06:23:38;19.70;62.30
79055;DHT22;68452;47.186;-1.528;2023-07-13T06:26:05;19.70;62.30
79055;DHT22;68452;47.186;-1.528;2023-07-13T06:28:33;19.70;62.20
79055;DHT22;68452;47.186;-1.528;2023-07-13T06:30:59;19.70;62.40
79055;DHT22;68452;47.186;-1.528;2023-07-13T06:33:26;19.70;62.60
79055;DHT22;68452;47.186;-1.528;2023-07-13T06:35:52;19.60;62.80
79055;DHT22;68452;47.186;-1.528;2023-07-13T06:38:18;19.70;63.00
79055;DHT22;68452;47.186;-1.528;2023-07-13T06:40:44;19.70;62.90
79055;DHT22;68452;47.186;-1.528;2023-07-13T06:43:10;19.80;62.90
79055;DHT22;68452;47.186;-1.528;2023-07-13T06:45:45;19.90;62.70
79055;DHT22;68452;47.186;-1.528;2023-07-13T06:48:16;19.90;62.70
79055;DHT22;68452;47.186;-1.528;2023-07-13T06:50:43;19.90;62.60
79055;DHT22;68452;47.186;-1.528;2023-07-13T06:53:10;20.00;62.50
79055;DHT22;68452;47.186;-1.528;2023-07-13T06:55:36;20.00;62.70
79055;DHT22;68452;47.186;-1.528;2023-07-13T06:58:03;20.10;62.50
79055;DHT22;68452;47.186;-1.528;2023-07-13T07:00:29;20.10;62.50
79055;DHT22;68452;47.186;-1.528;2023-07-13T07:02:54;20.20;62.30
79055;DHT22;68452;47.186;-1.528;2023-07-13T07:05:20;20.20;62.50
79055;DHT22;68452;47.186;-1.528;2023-07-13T07:07:51;20.30;62.40
79055;DHT22;68452;47.186;-1.528;2023-07-13T07:10:18;20.40;62.10
79055;DHT22;68452;47.186;-1.528;2023-07-13T07:12:44;20.40;61.80
79055;DHT22;68452;47.186;-1.528;2023-07-13T07:15:10;20.50;61.70
79055;DHT22;68452;47.186;-1.528;2023-07-13T07:17:36;20.50;61.40
79055;DHT22;68452;47.186;-1.528;2023-07-13T07:20:03;20.40;61.60
79055;DHT22;68452;47.186;-1.528;2023-07-13T07:22:29;20.50;61.60
79055;DHT22;68452;47.186;-1.528;2023-07-13T07:24:56;20.50;61.80
79055;DHT22;68452;47.186;-1.528;2023-07-13T07:27:23;20.60;61.60
79055;DHT22;68452;47.186;-1.528;2023-07-13T07:29:49;20.70;61.50
79055;DHT22;68452;47.186;-1.528;2023-07-13T07:32:15;20.70;61.70
79055;DHT22;68452;47.186;-1.528;2023-07-13T07:34:41;20.80;61.30
79055;DHT22;68452;47.186;-1.528;2023-07-13T07:37:06;20.90;61.00
79055;DHT22;68452;47.186;-1.528;2023-07-13T07:39:35;20.90;60.60
79055;DHT22;68452;47.186;-1.528;2023-07-13T07:42:00;20.90;61.00
79055;DHT22;68452;47.186;-1.528;2023-07-13T07:44:26;21.00;61.00
79055;DHT22;68452;47.186;-1.528;2023-07-13T07:46:53;21.00;60.90
79055;DHT22;68452;47.186;-1.528;2023-07-13T07:49:20;21.10;60.90
79055;DHT22;68452;47.186;-1.528;2023-07-13T07:51:46;21.20;60.80
79055;DHT22;68452;47.186;-1.528;2023-07-13T07:54:12;21.20;60.70
79055;DHT22;68452;47.186;-1.528;2023-07-13T07:56:38;21.20;60.90
79055;DHT22;68452;47.186;-1.528;2023-07-13T07:59:04;21.30;60.70
79055;DHT22;68452;47.186;-1.528;2023-07-13T08:01:30;21.30;60.50
79055;DHT22;68452;47.186;-1.528;2023-07-13T08:03:56;21.40;60.60
79055;DHT22;68452;47.186;-1.528;2023-07-13T08:06:22;21.40;60.40
79055;DHT22;68452;47.186;-1.528;2023-07-13T08:08:48;21.40;60.50
79055;DHT22;68452;47.186;-1.528;2023-07-13T08:11:14;21.40;60.80
79055;DHT22;68452;47.186;-1.528;2023-07-13T08:13:40;21.50;60.60
79055;DHT22;68452;47.186;-1.528;2023-07-13T08:16:07;21.50;60.40
79055;DHT22;68452;47.186;-1.528;2023-07-13T08:18:33;21.60;60.60
79055;DHT22;68452;47.186;-1.528;2023-07-13T08:21:06;21.70;60.40
79055;DHT22;68452;47.186;-1.528;2023-07-13T08:23:32;21.70;60.10
79055;DHT22;68452;47.186;-1.528;2023-07-13T08:25:58;21.60;60.00
79055;DHT22;68452;47.186;-1.528;2023-07-13T08:28:24;21.60;60.40
79055;DHT22;68452;47.186;-1.528;2023-07-13T08:30:50;21.70;59.80
79055;DHT22;68452;47.186;-1.528;2023-07-13T08:33:20;21.80;59.90
79055;DHT22;68452;47.186;-1.528;2023-07-13T08:35:47;21.90;59.70
79055;DHT22;68452;47.186;-1.528;2023-07-13T08:38:14;21.90;59.70
79055;DHT22;68452;47.186;-1.528;2023-07-13T08:40:41;21.90;59.00
79055;DHT22;68452;47.186;-1.528;2023-07-13T08:43:12;21.90;58.90
79055;DHT22;68452;47.186;-1.528;2023-07-13T08:45:46;22.10;58.50
79055;DHT22;68452;47.186;-1.528;2023-07-13T08:48:32;22.10;58.10
79055;DHT22;68452;47.186;-1.528;2023-07-13T08:53:57;22.30;57.40
79055;DHT22;68452;47.186;-1.528;2023-07-13T08:56:27;22.20;57.40
79055;DHT22;68452;47.186;-1.528;2023-07-13T08:59:00;22.20;56.90
79055;DHT22;68452;47.186;-1.528;2023-07-13T09:01:47;22.20;56.50
79055;DHT22;68452;47.186;-1.528;2023-07-13T09:04:28;22.20;56.40
79055;DHT22;68452;47.186;-1.528;2023-07-13T09:07:05;22.30;56.30
79055;DHT22;68452;47.186;-1.528;2023-07-13T09:15:02;22.40;54.80
79055;DHT22;68452;47.186;-1.528;2023-07-13T09:17:46;22.30;55.10
79055;DHT22;68452;47.186;-1.528;2023-07-13T09:20:52;22.30;54.90
79055;DHT22;68452;47.186;-1.528;2023-07-13T09:23:22;22.30;54.50
79055;DHT22;68452;47.186;-1.528;2023-07-13T09:25:51;22.20;54.60
79055;DHT22;68452;47.186;-1.528;2023-07-13T09:28:29;22.20;54.60
79055;DHT22;68452;47.186;-1.528;2023-07-13T09:31:15;22.20;55.10
79055;DHT22;68452;47.186;-1.528;2023-07-13T09:33:41;22.20;54.70
79055;DHT22;68452;47.186;-1.528;2023-07-13T09:36:29;22.30;55.00
79055;DHT22;68452;47.186;-1.528;2023-07-13T09:39:10;22.50;55.20
79055;DHT22;68452;47.186;-1.528;2023-07-13T09:41:57;22.70;54.00
79055;DHT22;68452;47.186;-1.528;2023-07-13T09:44:38;22.70;53.90
79055;DHT22;68452;47.186;-1.528;2023-07-13T09:47:24;22.90;53.70
79055;DHT22;68452;47.186;-1.528;2023-07-13T09:50:06;22.90;51.90
79055;DHT22;68452;47.186;-1.528;2023-07-13T09:52:49;23.10;51.50
79055;DHT22;68452;47.186;-1.528;2023-07-13T09:57:51;23.30;50.20
79055;DHT22;68452;47.186;-1.528;2023-07-13T10:00:29;23.30;49.90
79055;DHT22;68452;47.186;-1.528;2023-07-13T10:05:43;23.20;50.40
79055;DHT22;68452;47.186;-1.528;2023-07-13T10:08:25;23.10;49.90
79055;DHT22;68452;47.186;-1.528;2023-07-13T10:11:15;23.10;50.20
79055;DHT22;68452;47.186;-1.528;2023-07-13T10:13:46;23.10;50.30
79055;DHT22;68452;47.186;-1.528;2023-07-13T10:16:14;23.20;50.60
79055;DHT22;68452;47.186;-1.528;2023-07-13T10:18:59;23.40;49.20
79055;DHT22;68452;47.186;-1.528;2023-07-13T10:21:32;23.60;49.70
79055;DHT22;68452;47.186;-1.528;2023-07-13T10:24:30;23.80;49.90
79055;DHT22;68452;47.186;-1.528;2023-07-13T10:27:15;23.90;48.60
79055;DHT22;68452;47.186;-1.528;2023-07-13T10:32:22;24.20;48.80
79055;DHT22;68452;47.186;-1.528;2023-07-13T10:34:50;24.30;48.50
79055;DHT22;68452;47.186;-1.528;2023-07-13T10:37:24;24.30;47.60
79055;DHT22;68452;47.186;-1.528;2023-07-13T10:39:55;24.40;47.90
79055;DHT22;68452;47.186;-1.528;2023-07-13T10:42:30;24.50;48.00
79055;DHT22;68452;47.186;-1.528;2023-07-13T10:44:57;24.50;47.30
79055;DHT22;68452;47.186;-1.528;2023-07-13T10:47:24;24.50;47.90
79055;DHT22;68452;47.186;-1.528;2023-07-13T10:49:54;24.50;47.20
79055;DHT22;68452;47.186;-1.528;2023-07-13T10:52:46;24.60;47.30
79055;DHT22;68452;47.186;-1.528;2023-07-13T10:58:13;25.50;44.60
79055;DHT22;68452;47.186;-1.528;2023-07-13T11:00:47;25.60;44.70
79055;DHT22;68452;47.186;-1.528;2023-07-13T11:03:16;25.80;43.60
79055;DHT22;68452;47.186;-1.528;2023-07-13T11:05:43;25.70;44.40
79055;DHT22;68452;47.186;-1.528;2023-07-13T11:08:15;25.60;43.90
79055;DHT22;68452;47.186;-1.528;2023-07-13T11:11:02;25.60;43.90
79055;DHT22;68452;47.186;-1.528;2023-07-13T11:18:49;26.20;42.90
79055;DHT22;68452;47.186;-1.528;2023-07-13T11:21:27;25.90;43.20
79055;DHT22;68452;47.186;-1.528;2023-07-13T11:24:05;25.90;42.80
79055;DHT22;68452;47.186;-1.528;2023-07-13T11:26:50;26.50;42.70
79055;DHT22;68452;47.186;-1.528;2023-07-13T11:29:37;26.90;41.20
79055;DHT22;68452;47.186;-1.528;2023-07-13T11:32:25;27.10;41.40
79055;DHT22;68452;47.186;-1.528;2023-07-13T11:34:55;26.90;40.40
79055;DHT22;68452;47.186;-1.528;2023-07-13T11:37:22;26.50;39.70
79055;DHT22;68452;47.186;-1.528;2023-07-13T11:39:51;26.60;40.40
79055;DHT22;68452;47.186;-1.528;2023-07-13T11:42:19;26.60;40.20
79055;DHT22;68452;47.186;-1.528;2023-07-13T11:44:48;26.40;40.30
79055;DHT22;68452;47.186;-1.528;2023-07-13T11:47:18;26.30;41.10
79055;DHT22;68452;47.186;-1.528;2023-07-13T11:49:53;26.20;40.10
79055;DHT22;68452;47.186;-1.528;2023-07-13T11:52:34;26.00;39.80
79055;DHT22;68452;47.186;-1.528;2023-07-13T11:55:03;25.80;39.90
79055;DHT22;68452;47.186;-1.528;2023-07-13T11:57:37;25.80;40.10
79055;DHT22;68452;47.186;-1.528;2023-07-13T12:00:12;25.90;40.20
79055;DHT22;68452;47.186;-1.528;2023-07-13T12:02:47;26.10;40.00
79055;DHT22;68452;47.186;-1.528;2023-07-13T12:05:16;26.20;39.50
79055;DHT22;68452;47.186;-1.528;2023-07-13T12:07:50;26.30;39.10
79055;DHT22;68452;47.186;-1.528;2023-07-13T12:10:28;26.10;39.20
79055;DHT22;68452;47.186;-1.528;2023-07-13T12:13:05;26.00;38.40
79055;DHT22;68452;47.186;-1.528;2023-07-13T12:15:37;26.10;37.80
79055;DHT22;68452;47.186;-1.528;2023-07-13T12:18:13;26.20;37.50
79055;DHT22;68452;47.186;-1.528;2023-07-13T12:20:39;26.20;37.60
79055;DHT22;68452;47.186;-1.528;2023-07-13T12:25:48;26.20;37.50
79055;DHT22;68452;47.186;-1.528;2023-07-13T12:28:31;26.20;38.20
79055;DHT22;68452;47.186;-1.528;2023-07-13T12:31:03;26.30;38.20
79055;DHT22;68452;47.186;-1.528;2023-07-13T12:33:31;26.30;38.50
79055;DHT22;68452;47.186;-1.528;2023-07-13T12:36:01;26.40;38.30
79055;DHT22;68452;47.186;-1.528;2023-07-13T12:38:29;26.60;38.60
79055;DHT22;68452;47.186;-1.528;2023-07-13T12:40:55;26.90;38.10
79055;DHT22;68452;47.186;-1.528;2023-07-13T12:43:22;27.20;37.60
79055;DHT22;68452;47.186;-1.528;2023-07-13T12:46:21;27.50;36.80
79055;DHT22;68452;47.186;-1.528;2023-07-13T12:48:51;27.60;37.00
79055;DHT22;68452;47.186;-1.528;2023-07-13T12:51:22;27.70;36.50
79055;DHT22;68452;47.186;-1.528;2023-07-13T12:53:50;28.10;35.90
79055;DHT22;68452;47.186;-1.528;2023-07-13T12:56:23;28.60;35.20
79055;DHT22;68452;47.186;-1.528;2023-07-13T12:58:56;28.80;35.20
79055;DHT22;68452;47.186;-1.528;2023-07-13T13:01:22;28.30;35.40
79055;DHT22;68452;47.186;-1.528;2023-07-13T13:03:53;27.90;36.20
79055;DHT22;68452;47.186;-1.528;2023-07-13T13:06:23;27.70;36.40
79055;DHT22;68452;47.186;-1.528;2023-07-13T13:08:52;27.50;36.40
79055;DHT22;68452;47.186;-1.528;2023-07-13T13:11:20;27.50;37.10
79055;DHT22;68452;47.186;-1.528;2023-07-13T13:13:46;27.50;36.90
79055;DHT22;68452;47.186;-1.528;2023-07-13T13:18:49;27.50;36.20
79055;DHT22;68452;47.186;-1.528;2023-07-13T13:21:16;27.50;35.50
79055;DHT22;68452;47.186;-1.528;2023-07-13T13:23:42;27.40;36.00
79055;DHT22;68452;47.186;-1.528;2023-07-13T13:26:12;27.20;35.80
79055;DHT22;68452;47.186;-1.528;2023-07-13T13:28:38;27.60;35.60
79055;DHT22;68452;47.186;-1.528;2023-07-13T13:31:04;28.00;35.20
79055;DHT22;68452;47.186;-1.528;2023-07-13T13:33:29;28.30;35.20
79055;DHT22;68452;47.186;-1.528;2023-07-13T13:35:56;28.10;34.70
79055;DHT22;68452;47.186;-1.528;2023-07-13T13:38:27;28.00;34.80
79055;DHT22;68452;47.186;-1.528;2023-07-13T13:40:54;28.10;35.20
79055;DHT22;68452;47.186;-1.528;2023-07-13T13:43:26;28.30;34.60
79055;DHT22;68452;47.186;-1.528;2023-07-13T13:45:54;28.30;34.80
79055;DHT22;68452;47.186;-1.528;2023-07-13T13:48:31;28.30;34.70
79055;DHT22;68452;47.186;-1.528;2023-07-13T13:50:58;28.20;35.80
79055;DHT22;68452;47.186;-1.528;2023-07-13T13:53:25;28.30;34.90
79055;DHT22;68452;47.186;-1.528;2023-07-13T13:55:52;28.20;34.80
79055;DHT22;68452;47.186;-1.528;2023-07-13T13:58:21;28.10;35.40
79055;DHT22;68452;47.186;-1.528;2023-07-13T14:00:48;28.00;35.60
79055;DHT22;68452;47.186;-1.528;2023-07-13T14:03:18;28.00;35.80
